sensor_id;sensor_type;location;lat;lon;timestamp;pressure;altitude;pressure_sealevel;temperature;humidity
13029;BME280;6581;42.662;23.402;2023-01-29T00:00:06;95444.03;;;0.20;100.00
13029;BME280;6581;42.662;23.402;2023-01-29T00:02:38;95448.69;;;0.23;100.00
13029;BME280;6581;42.662;23.402;2023-01-29T00:05:06;95450.88;;;0.29;100.00
13029;BME280;6581;42.662;23.402;2023-01-29T00:07:35;95453.31;;;0.26;100.00
13029;BME280;6581;42.662;23.402;2023-01-29T00:10:02;95457.25;;;0.23;100.00
13029;BME280;6581;42.662;23.402;2023-01-29T00:12:29;95461.72;;;0.36;100.00
13029;BME280;6581;42.662;23.402;2023-01-29T00:14:56;95465.00;;;0.42;100.00
13029;BME280;6581;42.662;23.402;2023-01-29T00:17:48;95468.88;;;0.44;100.00
13029;BME280;6581;42.662;23.402;2023-01-29T00:20:16;95476.34;;;0.32;100.00
13029;BME280;6581;42.662;23.402;2023-01-29T00:22:44;95475.63;;;0.32;100.00
13029;BME280;6581;42.662;23.402;2023-01-29T00:25:11;95477.22;;;0.28;100.00
13029;BME280;6581;42.662;23.402;2023-01-29T00:27:38;95473.38;;;0.25;100.00
13029;BME280;6581;42.662;23.402;2023-01-29T00:30:08;95475.31;;;0.33;100.00
13029;BME280;6581;42.662;23.402;2023-01-29T00:32:37;95488.25;;;0.38;100.00
13029;BME280;6581;42.662;23.402;2023-01-29T00:35:06;95480.59;;;0.28;100.00
13029;BME280;6581;42.662;23.402;2023-01-29T00:37:34;95479.34;;;0.26;100.00
13029;BME280;6581;42.662;23.402;2023-01-29T00:40:03;95481.00;;;0.22;100.00
13029;BME280;6581;42.662;23.402;2023-01-29T00:42:31;95478.09;;;0.23;100.00
13029;BME280;6581;42.662;23.402;2023-01-29T00:45:16;95483.41;;;0.18;100.00
13029;BME280;6581;42.662;23.402;2023-01-29T00:47:44;95484.06;;;0.24;100.00
13029;BME280;6581;42.662;23.402;2023-01-29T00:50:13;95485.72;;;0.20;100.00
13029;BME280;6581;42.662;23.402;2023-01-29T00:52:40;95480.91;;;0.27;100.00
13029;BME280;6581;42.662;23.402;2023-01-29T00:55:10;95479.16;;;0.22;100.00
13029;BME280;6581;42.662;23.402;2023-01-29T00:57:37;95473.56;;;0.29;100.00
13029;BME280;6581;42.662;23.402;2023-01-29T01:00:07;95478.41;;;0.35;100.00
13029;BME280;6581;42.662;23.402;2023-01-29T01:02:35;95475.50;;;0.37;100.00
13029;BME280;6581;42.662;23.402;2023-01-29T01:05:20;95472.63;;;0.38;100.00
13029;BME280;6581;42.662;23.402;2023-01-29T01:07:49;95477.72;;;0.30;100.00
13029;BME280;6581;42.662;23.402;2023-01-29T01:10:20;95475.31;;;0.33;100.00
13029;BME280;6581;42.662;23.402;2023-01-29T01:12:48;95478.59;;;0.39;100.00
13029;BME280;6581;42.662;23.402;2023-01-29T01:15:16;95478.09;;;0.37;100.00
13029;BME280;6581;42.662;23.402;2023-01-29T01:17:43;95479.56;;;0.43;100.00
13029;BME280;6581;42.662;23.402;2023-01-29T01:20:12;95467.66;;;0.23;100.00
13029;BME280;6581;42.662;23.402;2023-01-29T01:22:39;95474.72;;;0.23;100.00
13029;BME280;6581;42.662;23.402;2023-01-29T01:25:07;95465.16;;;0.18;100.00
13029;BME280;6581;42.662;23.402;2023-01-29T01:27:35;95470.16;;;0.15;100.00
13029;BME280;6581;42.662;23.402;2023-01-29T01:30:31;95478.91;;;0.05;100.00
13029;BME280;6581;42.662;23.402;2023-01-29T01:32:59;95466.75;;;0.00;100.00
13029;BME280;6581;42.662;23.402;2023-01-29T01:35:26;95483.84;;;0.07;100.00
13029;BME280;6581;42.662;23.402;2023-01-29T01:37:53;95466.59;;;0.11;100.00
13029;BME280;6581;42.662;23.402;2023-01-29T01:40:22;95470.03;;;0.06;100.00
13029;BME280;6581;42.662;23.402;2023-01-29T01:42:53;95465.53;;;0.12;100.00
13029;BME280;6581;42.662;23.402;2023-01-29T01:45:24;95466.13;;;0.09;100.00
13029;BME280;6581;42.662;23.402;2023-01-29T01:47:53;95471.31;;;0.09;100.00
13029;BME280;6581;42.662;23.402;2023-01-29T01:50:26;95472.84;;;0.10;100.00
13029;BME280;6581;42.662;23.402;2023-01-29T01:52:58;95479.22;;;0.04;100.00
13029;BME280;6581;42.662;23.402;2023-01-29T01:55:28;95478.78;;;-0.04;100.00
13029;BME280;6581;42.662;23.402;2023-01-29T01:58:02;95477.25;;;-0.05;100.00
13029;BME280;6581;42.662;23.402;2023-01-29T02:00:33;95479.50;;;0.02;100.00
13029;BME280;6581;42.662;23.402;2023-01-29T02:03:00;95485.97;;;0.05;100.00
13029;BME280;6581;42.662;23.402;2023-01-29T02:05:48;95491.66;;;0.07;100.00
13029;BME280;6581;42.662;23.402;2023-01-29T02:08:38;95486.59;;;-0.04;100.00
13029;BME280;6581;42.662;23.402;2023-01-29T02:11:26;95485.47;;;0.03;100.00
13029;BME280;6581;42.662;23.402;2023-01-29T02:13:56;95484.03;;;0.10;100.00
13029;BME280;6581;42.662;23.402;2023-01-29T02:16:24;95489.56;;;0.09;100.00
13029;BME280;6581;42.662;23.402;2023-01-29T02:18:52;95485.28;;;-0.01;100.00
13029;BME280;6581;42.662;23.402;2023-01-29T02:21:35;95492.31;;;-0.02;100.00
13029;BME280;6581;42.662;23.402;2023-01-29T02:24:39;95487.47;;;-0.08;100.00
13029;BME280;6581;42.662;23.402;2023-01-29T02:28:14;95489.44;;;0.00;100.00
13029;BME280;6581;42.662;23.402;2023-01-29T02:30:50;95493.88;;;-0.01;100.00
13029;BME280;6581;42.662;23.402;2023-01-29T02:33:30;95503.09;;;-0.08;100.00
13029;BME280;6581;42.662;23.402;2023-01-29T02:36:08;95506.00;;;-0.10;100.00
13029;BME280;6581;42.662;23.402;2023-01-29T02:38:44;95516.41;;;-0.10;100.00
13029;BME280;6581;42.662;23.402;2023-01-29T02:41:20;95514.34;;;-0.13;100.00
13029;BME280;6581;42.662;23.402;2023-01-29T02:43:54;95504.97;;;-0.14;100.00
13029;BME280;6581;42.662;23.402;2023-01-29T02:46:30;95502.81;;;-0.07;100.00
13029;BME280;6581;42.662;23.402;2023-01-29T02:49:05;95514.19;;;-0.03;100.00
13029;BME280;6581;42.662;23.402;2023-01-29T02:51:37;95510.34;;;-0.05;100.00
13029;BME280;6581;42.662;23.402;2023-01-29T02:54:07;95512.72;;;-0.09;100.00
13029;BME280;6581;42.662;23.402;2023-01-29T02:56:40;95509.56;;;-0.06;100.00
13029;BME280;6581;42.662;23.402;2023-01-29T02:59:14;95512.19;;;-0.06;100.00
13029;BME280;6581;42.662;23.402;2023-01-29T03:01:47;95515.81;;;-0.07;100.00
13029;BME280;6581;42.662;23.402;2023-01-29T03:04:20;95509.72;;;-0.16;100.00
13029;BME280;6581;42.662;23.402;2023-01-29T03:06:51;95507.59;;;-0.14;100.00
13029;BME280;6581;42.662;23.402;2023-01-29T03:09:25;95521.09;;;-0.12;100.00
13029;BME280;6581;42.662;23.402;2023-01-29T03:11:57;95514.56;;;-0.09;100.00
13029;BME280;6581;42.662;23.402;2023-01-29T03:14:48;95517.47;;;-0.11;100.00
13029;BME280;6581;42.662;23.402;2023-01-29T03:17:36;95517.03;;;-0.18;100.00
13029;BME280;6581;42.662;23.402;2023-01-29T03:20:10;95516.88;;;-0.08;100.00
13029;BME280;6581;42.662;23.402;2023-01-29T03:22:43;95515.81;;;-0.07;100.00
13029;BME280;6581;42.662;23.402;2023-01-29T03:25:14;95518.78;;;-0.13;100.00
13029;BME280;6581;42.662;23.402;2023-01-29T03:28:03;95524.69;;;-0.08;100.00
13029;BME280;6581;42.662;23.402;2023-01-29T03:30:51;95526.81;;;-0.10;100.00
13029;BME280;6581;42.662;23.402;2023-01-29T03:33:58;95528.66;;;-0.10;100.00
13029;BME280;6581;42.662;23.402;2023-01-29T03:36:31;95526.72;;;-0.05;100.00
13029;BME280;6581;42.662;23.402;2023-01-29T03:39:04;95530.94;;;-0.09;100.00
13029;BME280;6581;42.662;23.402;2023-01-29T03:41:35;95522.59;;;-0.06;100.00
13029;BME280;6581;42.662;23.402;2023-01-29T03:44:32;95529.44;;;-0.10;100.00
13029;BME280;6581;42.662;23.402;2023-01-29T03:47:11;95524.22;;;-0.10;100.00
13029;BME280;6581;42.662;23.402;2023-01-29T03:49:52;95529.13;;;-0.08;100.00
13029;BME280;6581;42.662;23.402;2023-01-29T03:52:38;95519.22;;;-0.06;100.00
13029;BME280;6581;42.662;23.402;2023-01-29T03:55:13;95523.13;;;-0.09;100.00
13029;BME280;6581;42.662;23.402;2023-01-29T03:57:45;95520.84;;;-0.10;100.00
13029;BME280;6581;42.662;23.402;2023-01-29T04:00:18;95526.81;;;-0.10;100.00
13029;BME280;6581;42.662;23.402;2023-01-29T04:03:05;95520.59;;;-0.14;100.00
13029;BME280;6581;42.662;23.402;2023-01-29T04:05:39;95527.94;;;-0.16;100.00
13029;BME280;6581;42.662;23.402;2023-01-29T04:08:19;95527.81;;;-0.24;100.00
13029;BME280;6581;42.662;23.402;2023-01-29T04:10:50;95528.88;;;-0.25;100.00
13029;BME280;6581;42.662;23.402;2023-01-29T04:13:18;95528.72;;;-0.15;100.00
13029;BME280;6581;42.662;23.402;2023-01-29T04:15:51;95531.88;;;-0.18;100.00
13029;BME280;6581;42.662;23.402;2023-01-29T04:18:34;95530.34;;;-0.19;100.00
13029;BME280;6581;42.662;23.402;2023-01-29T04:21:05;95531.75;;;-0.27;100.00
13029;BME280;6581;42.662;23.402;2023-01-29T04:23:33;95526.25;;;-0.25;100.00
13029;BME280;6581;42.662;23.402;2023-01-29T04:26:18;95535.63;;;-0.24;100.00
13029;BME280;6581;42.662;23.402;2023-01-29T04:28:58;95530.91;;;-0.22;100.00
13029;BME280;6581;42.662;23.402;2023-01-29T04:32:01;95539.22;;;-0.20;100.00
13029;BME280;6581;42.662;23.402;2023-01-29T04:34:44;95538.78;;;-0.27;100.00
13029;BME280;6581;42.662;23.402;2023-01-29T04:37:15;95539.78;;;-0.23;100.00
13029;BME280;6581;42.662;23.402;2023-01-29T04:39:53;95535.97;;;-0.31;100.00
13029;BME280;6581;42.662;23.402;2023-01-29T04:42:26;95539.00;;;-0.24;100.00
13029;BME280;6581;42.662;23.402;2023-01-29T04:45:00;95536.47;;;-0.29;100.00
13029;BME280;6581;42.662;23.402;2023-01-29T04:47:34;95543.72;;;-0.26;100.00
13029;BME280;6581;42.662;23.402;2023-01-29T04:50:12;95542.59;;;-0.20;100.00
13029;BME280;6581;42.662;23.402;2023-01-29T04:52:46;95544.41;;;-0.20;100.00
13029;BME280;6581;42.662;23.402;2023-01-29T04:55:43;95549.34;;;-0.19;100.00
13029;BME280;6581;42.662;23.402;2023-01-29T04:58:15;95548.84;;;-0.21;100.00
13029;BME280;6581;42.662;23.402;2023-01-29T05:00:49;95551.09;;;-0.14;100.00
13029;BME280;6581;42.662;23.402;2023-01-29T05:03:21;95548.78;;;-0.16;100.00
13029;BME280;6581;42.662;23.402;2023-01-29T05:05:53;95552.16;;;-0.15;100.00
13029;BME280;6581;42.662;23.402;2023-01-29T05:08:23;95551.72;;;-0.22;100.00
13029;BME280;6581;42.662;23.402;2023-01-29T05:10:52;95547.72;;;-0.15;100.00
13029;BME280;6581;42.662;23.402;2023-01-29T05:13:22;95556.50;;;-0.11;100.00
13029;BME280;6581;42.662;23.402;2023-01-29T05:15:55;95556.91;;;-0.04;100.00
13029;BME280;6581;42.662;23.402;2023-01-29T05:18:23;95560.50;;;0.00;100.00
13029;BME280;6581;42.662;23.402;2023-01-29T05:20:53;95554.53;;;0.00;100.00
13029;BME280;6581;42.662;23.402;2023-01-29T05:23:22;95558.47;;;-0.03;100.00
13029;BME280;6581;42.662;23.402;2023-01-29T05:25:50;95562.91;;;-0.03;100.00
13029;BME280;6581;42.662;23.402;2023-01-29T05:28:17;95563.63;;;0.03;100.00
13029;BME280;6581;42.662;23.402;2023-01-29T05:30:45;95561.66;;;-0.06;100.00
13029;BME280;6581;42.662;23.402;2023-01-29T05:33:14;95571.28;;;0.13;100.00
13029;BME280;6581;42.662;23.402;2023-01-29T05:35:41;95563.03;;;0.06;100.00
13029;BME280;6581;42.662;23.402;2023-01-29T05:38:35;95570.66;;;0.02;100.00
13029;BME280;6581;42.662;23.402;2023-01-29T05:41:02;95571.78;;;-0.04;100.00
13029;BME280;6581;42.662;23.402;2023-01-29T05:43:29;95573.91;;;-0.06;100.00
13029;BME280;6581;42.662;23.402;2023-01-29T05:45:57;95564.47;;;-0.21;100.00
13029;BME280;6581;42.662;23.402;2023-01-29T05:48:25;95571.56;;;-0.08;100.00
13029;BME280;6581;42.662;23.402;2023-01-29T05:50:53;95575.78;;;-0.12;100.00
13029;BME280;6581;42.662;23.402;2023-01-29T05:53:25;95570.84;;;-0.13;100.00
13029;BME280;6581;42.662;23.402;2023-01-29T05:55:53;95583.66;;;-0.17;100.00
13029;BME280;6581;42.662;23.402;2023-01-29T05:58:47;95572.28;;;-0.21;100.00
13029;BME280;6581;42.662;23.402;2023-01-29T06:01:16;95582.81;;;-0.12;100.00
13029;BME280;6581;42.662;23.402;2023-01-29T06:03:44;95593.63;;;-0.19;100.00
13029;BME280;6581;42.662;23.402;2023-01-29T06:06:11;95578.75;;;-0.18;100.00
13029;BME280;6581;42.662;23.402;2023-01-29T06:08:39;95595.06;;;-0.13;100.00
13029;BME280;6581;42.662;23.402;2023-01-29T06:11:09;95599.94;;;-0.25;100.00
13029;BME280;6581;42.662;23.402;2023-01-29T06:13:37;95596.28;;;-0.24;100.00
13029;BME280;6581;42.662;23.402;2023-01-29T06:16:05;95597.25;;;-0.20;100.00
13029;BME280;6581;42.662;23.402;2023-01-29T06:18:32;95605.50;;;-0.13;100.00
13029;BME280;6581;42.662;23.402;2023-01-29T06:21:00;95610.41;;;-0.11;100.00
13029;BME280;6581;42.662;23.402;2023-01-29T06:23:28;95611.41;;;-0.07;100.00
13029;BME280;6581;42.662;23.402;2023-01-29T06:26:21;95616.94;;;-0.14;100.00
13029;BME280;6581;42.662;23.402;2023-01-29T06:29:14;95618.72;;;-0.09;100.00
13029;BME280;6581;42.662;23.402;2023-01-29T06:31:41;95620.47;;;-0.05;100.00
13029;BME280;6581;42.662;23.402;2023-01-29T06:34:08;95624.69;;;-0.09;100.00
13029;BME280;6581;42.662;23.402;2023-01-29T06:36:35;95623.66;;;-0.08;100.00
13029;BME280;6581;42.662;23.402;2023-01-29T06:39:03;95628.66;;;-0.11;100.00
13029;BME280;6581;42.662;23.402;2023-01-29T06:41:33;95628.66;;;-0.11;100.00
13029;BME280;6581;42.662;23.402;2023-01-29T06:44:00;95637.78;;;0.05;100.00
13029;BME280;6581;42.662;23.402;2023-01-29T06:46:27;95638.63;;;0.00;100.00
13029;BME280;6581;42.662;23.402;2023-01-29T06:48:56;95632.69;;;0.00;100.00
13029;BME280;6581;42.662;23.402;2023-01-29T06:51:23;95641.09;;;0.11;100.00
13029;BME280;6581;42.662;23.402;2023-01-29T06:53:51;95641.25;;;0.19;100.00
13029;BME280;6581;42.662;23.402;2023-01-29T06:56:19;95640.56;;;0.14;100.00
13029;BME280;6581;42.662;23.402;2023-01-29T06:58:48;95638.88;;;0.23;100.00
13029;BME280;6581;42.662;23.402;2023-01-29T07:01:15;95648.22;;;0.24;100.00
13029;BME280;6581;42.662;23.402;2023-01-29T07:03:43;95645.91;;;0.22;100.00
13029;BME280;6581;42.662;23.402;2023-01-29T07:06:10;95654.19;;;0.24;100.00
13029;BME280;6581;42.662;23.402;2023-01-29T07:08:38;95652.75;;;0.18;100.00
13029;BME280;6581;42.662;23.402;2023-01-29T07:11:29;95650.88;;;0.19;100.00
13029;BME280;6581;42.662;23.402;2023-01-29T07:13:58;95648.84;;;0.16;100.00
13029;BME280;6581;42.662;23.402;2023-01-29T07:16:25;95648.84;;;0.16;100.00
13029;BME280;6581;42.662;23.402;2023-01-29T07:18:52;95656.88;;;0.19;100.00
13029;BME280;6581;42.662;23.402;2023-01-29T07:21:19;95659.22;;;0.21;100.00
13029;BME280;6581;42.662;23.402;2023-01-29T07:23:46;95653.50;;;0.19;100.00
13029;BME280;6581;42.662;23.402;2023-01-29T07:26:13;95659.06;;;0.31;100.00
13029;BME280;6581;42.662;23.402;2023-01-29T07:28:41;95663.28;;;0.27;100.00
13029;BME280;6581;42.662;23.402;2023-01-29T07:31:12;95676.38;;;0.22;100.00
13029;BME280;6581;42.662;23.402;2023-01-29T07:33:39;95668.72;;;0.30;100.00
13029;BME280;6581;42.662;23.402;2023-01-29T07:36:09;95674.13;;;0.34;100.00
13029;BME280;6581;42.662;23.402;2023-01-29T07:38:37;95677.72;;;0.38;100.00
13029;BME280;6581;42.662;23.402;2023-01-29T07:41:04;95668.06;;;0.38;100.00
13029;BME280;6581;42.662;23.402;2023-01-29T07:43:32;95666.94;;;0.44;100.00
13029;BME280;6581;42.662;23.402;2023-01-29T07:46:01;95662.78;;;0.25;100.00
13029;BME280;6581;42.662;23.402;2023-01-29T07:48:30;95664.28;;;0.31;100.00
13029;BME280;6581;42.662;23.402;2023-01-29T07:50:57;95672.94;;;0.26;100.00
13029;BME280;6581;42.662;23.402;2023-01-29T07:53:25;95677.09;;;0.27;100.00
13029;BME280;6581;42.662;23.402;2023-01-29T07:55:53;95682.22;;;0.32;100.00
13029;BME280;6581;42.662;23.402;2023-01-29T07:58:20;95681.47;;;0.32;100.00
13029;BME280;6581;42.662;23.402;2023-01-29T08:00:47;95675.81;;;0.25;100.00
13029;BME280;6581;42.662;23.402;2023-01-29T08:03:15;95679.41;;;0.29;100.00
13029;BME280;6581;42.662;23.402;2023-01-29T08:05:44;95690.53;;;0.34;100.00
13029;BME280;6581;42.662;23.402;2023-01-29T08:08:11;95694.19;;;0.33;100.00
13029;BME280;6581;42.662;23.402;2023-01-29T08:10:39;95683.56;;;0.30;100.00
13029;BME280;6581;42.662;23.402;2023-01-29T08:13:07;95684.88;;;0.46;100.00
13029;BME280;6581;42.662;23.402;2023-01-29T08:15:35;95690.59;;;0.48;100.00
13029;BME280;6581;42.662;23.402;2023-01-29T08:18:02;95697.38;;;0.49;100.00
13029;BME280;6581;42.662;23.402;2023-01-29T08:20:29;95695.94;;;0.57;100.00
13029;BME280;6581;42.662;23.402;2023-01-29T08:23:02;95692.56;;;0.56;100.00
13029;BME280;6581;42.662;23.402;2023-01-29T08:25:31;95692.63;;;0.51;100.00
13029;BME280;6581;42.662;23.402;2023-01-29T08:27:59;95693.56;;;0.41;100.00
13029;BME280;6581;42.662;23.402;2023-01-29T08:30:29;95704.53;;;0.57;100.00
13029;BME280;6581;42.662;23.402;2023-01-29T08:32:56;95700.03;;;0.63;100.00
13029;BME280;6581;42.662;23.402;2023-01-29T08:35:24;95696.28;;;0.69;100.00
13029;BME280;6581;42.662;23.402;2023-01-29T08:38:18;95707.09;;;0.62;100.00
13029;BME280;6581;42.662;23.402;2023-01-29T08:40:45;95704.47;;;0.62;100.00
13029;BME280;6581;42.662;23.402;2023-01-29T08:43:12;95712.69;;;0.69;100.00
13029;BME280;6581;42.662;23.402;2023-01-29T08:45:41;95707.41;;;0.74;100.00
13029;BME280;6581;42.662;23.402;2023-01-29T08:48:09;95711.00;;;0.78;100.00
13029;BME280;6581;42.662;23.402;2023-01-29T08:50:36;95716.44;;;0.82;100.00
13029;BME280;6581;42.662;23.402;2023-01-29T08:53:05;95722.97;;;0.79;100.00
13029;BME280;6581;42.662;23.402;2023-01-29T08:55:36;95727.44;;;0.60;100.00
13029;BME280;6581;42.662;23.402;2023-01-29T08:58:03;95733.34;;;0.66;100.00
13029;BME280;6581;42.662;23.402;2023-01-29T09:00:31;95732.09;;;0.63;100.00
13029;BME280;6581;42.662;23.402;2023-01-29T09:02:58;95724.56;;;0.62;100.00
13029;BME280;6581;42.662;23.402;2023-01-29T09:05:26;95732.44;;;0.75;100.00
13029;BME280;6581;42.662;23.402;2023-01-29T09:07:53;95737.44;;;0.72;100.00
13029;BME280;6581;42.662;23.402;2023-01-29T09:10:20;95733.28;;;0.71;100.00
13029;BME280;6581;42.662;23.402;2023-01-29T09:12:49;95730.69;;;0.71;100.00
13029;BME280;6581;42.662;23.402;2023-01-29T09:15:17;95730.41;;;0.72;100.00
13029;BME280;6581;42.662;23.402;2023-01-29T09:17:44;95716.28;;;0.73;100.00
13029;BME280;6581;42.662;23.402;2023-01-29T09:20:11;95730.81;;;0.79;100.00
13029;BME280;6581;42.662;23.402;2023-01-29T09:22:38;95733.59;;;1.02;100.00
13029;BME280;6581;42.662;23.402;2023-01-29T09:25:08;95729.25;;;1.11;100.00
13029;BME280;6581;42.662;23.402;2023-01-29T09:27:36;95731.75;;;1.02;100.00
13029;BME280;6581;42.662;23.402;2023-01-29T09:30:06;95730.19;;;1.01;100.00
13029;BME280;6581;42.662;23.402;2023-01-29T09:32:34;95732.91;;;0.96;100.00
13029;BME280;6581;42.662;23.402;2023-01-29T09:35:01;95727.97;;;0.95;100.00
13029;BME280;6581;42.662;23.402;2023-01-29T09:37:30;95718.59;;;0.94;100.00
13029;BME280;6581;42.662;23.402;2023-01-29T09:39:57;95722.44;;;0.82;100.00
13029;BME280;6581;42.662;23.402;2023-01-29T09:42:28;95715.72;;;0.76;100.00
13029;BME280;6581;42.662;23.402;2023-01-29T09:45:03;95716.94;;;0.98;100.00
13029;BME280;6581;42.662;23.402;2023-01-29T09:47:34;95721.22;;;1.07;100.00
13029;BME280;6581;42.662;23.402;2023-01-29T09:50:04;95712.25;;;1.00;100.00
13029;BME280;6581;42.662;23.402;2023-01-29T09:52:34;95716.00;;;1.07;100.00
13029;BME280;6581;42.662;23.402;2023-01-29T09:55:05;95711.25;;;0.96;100.00
13029;BME280;6581;42.662;23.402;2023-01-29T09:57:44;95705.75;;;0.97;100.00
13029;BME280;6581;42.662;23.402;2023-01-29T10:00:14;95708.72;;;0.91;100.00
13029;BME280;6581;42.662;23.402;2023-01-29T10:03:09;95710.84;;;0.88;100.00
13029;BME280;6581;42.662;23.402;2023-01-29T10:05:52;95700.09;;;0.76;100.00
13029;BME280;6581;42.662;23.402;2023-01-29T10:08:39;95706.97;;;0.86;100.00
13029;BME280;6581;42.662;23.402;2023-01-29T10:11:16;95696.44;;;0.77;100.00
13029;BME280;6581;42.662;23.402;2023-01-29T10:13:53;95694.78;;;0.81;100.00
13029;BME280;6581;42.662;23.402;2023-01-29T10:16:35;95689.72;;;1.04;100.00
13029;BME280;6581;42.662;23.402;2023-01-29T10:19:38;95703.59;;;1.18;100.00
13029;BME280;6581;42.662;23.402;2023-01-29T10:22:31;95696.53;;;1.18;100.00
13029;BME280;6581;42.662;23.402;2023-01-29T10:25:03;95698.38;;;1.18;100.00
13029;BME280;6581;42.662;23.402;2023-01-29T10:27:32;95687.31;;;1.07;100.00
13029;BME280;6581;42.662;23.402;2023-01-29T10:30:02;95679.28;;;1.04;100.00
13029;BME280;6581;42.662;23.402;2023-01-29T10:32:36;95690.41;;;0.96;100.00
13029;BME280;6581;42.662;23.402;2023-01-29T10:35:16;95675.09;;;0.89;100.00
13029;BME280;6581;42.662;23.402;2023-01-29T10:37:50;95673.19;;;0.95;100.00
13029;BME280;6581;42.662;23.402;2023-01-29T10:40:19;95674.44;;;0.97;100.00
13029;BME280;6581;42.662;23.402;2023-01-29T10:42:52;95673.81;;;1.19;100.00
13029;BME280;6581;42.662;23.402;2023-01-29T10:45:28;95676.13;;;1.20;100.00
13029;BME280;6581;42.662;23.402;2023-01-29T10:48:24;95690.19;;;1.06;100.00
13029;BME280;6581;42.662;23.402;2023-01-29T10:51:06;95681.63;;;1.05;100.00
13029;BME280;6581;42.662;23.402;2023-01-29T10:53:47;95676.41;;;1.05;100.00
13029;BME280;6581;42.662;23.402;2023-01-29T10:56:28;95669.94;;;1.16;100.00
13029;BME280;6581;42.662;23.402;2023-01-29T10:59:07;95671.66;;;1.07;100.00
13029;BME280;6581;42.662;23.402;2023-01-29T11:01:37;95673.13;;;1.13;100.00
13029;BME280;6581;42.662;23.402;2023-01-29T11:04:05;95664.13;;;1.06;100.00
13029;BME280;6581;42.662;23.402;2023-01-29T11:06:35;95666.28;;;1.17;100.00
13029;BME280;6581;42.662;23.402;2023-01-29T11:09:07;95666.47;;;1.21;100.00
13029;BME280;6581;42.662;23.402;2023-01-29T11:11:40;95663.47;;;1.14;100.00
13029;BME280;6581;42.662;23.402;2023-01-29T11:14:13;95662.03;;;1.21;100.00
13029;BME280;6581;42.662;23.402;2023-01-29T11:16:43;95658.75;;;1.29;100.00
13029;BME280;6581;42.662;23.402;2023-01-29T11:19:10;95650.34;;;1.19;100.00
13029;BME280;6581;42.662;23.402;2023-01-29T11:21:54;95656.88;;;1.03;100.00
13029;BME280;6581;42.662;23.402;2023-01-29T11:24:22;95652.25;;;1.00;100.00
13029;BME280;6581;42.662;23.402;2023-01-29T11:26:51;95653.91;;;1.09;100.00
13029;BME280;6581;42.662;23.402;2023-01-29T11:29:33;95652.28;;;1.27;100.00
13029;BME280;6581;42.662;23.402;2023-01-29T11:32:04;95638.34;;;1.18;100.00
13029;BME280;6581;42.662;23.402;2023-01-29T11:34:32;95640.53;;;1.11;100.00
13029;BME280;6581;42.662;23.402;2023-01-29T11:37:01;95634.97;;;1.17;100.00
13029;BME280;6581;42.662;23.402;2023-01-29T11:39:54;95632.72;;;1.38;100.00
13029;BME280;6581;42.662;23.402;2023-01-29T11:42:22;95623.66;;;1.49;100.00
13029;BME280;6581;42.662;23.402;2023-01-29T11:44:51;95630.41;;;1.64;100.00
13029;BME280;6581;42.662;23.402;2023-01-29T11:47:20;95623.47;;;1.59;100.00
13029;BME280;6581;42.662;23.402;2023-01-29T11:49:49;95631.66;;;1.53;100.00
13029;BME280;6581;42.662;23.402;2023-01-29T11:52:21;95628.28;;;1.39;100.00
13029;BME280;6581;42.662;23.402;2023-01-29T11:54:54;95620.09;;;1.31;100.00
13029;BME280;6581;42.662;23.402;2023-01-29T11:57:31;95626.06;;;1.18;100.00
13029;BME280;6581;42.662;23.402;2023-01-29T12:00:02;95621.06;;;1.36;100.00
13029;BME280;6581;42.662;23.402;2023-01-29T12:02:36;95620.28;;;1.35;100.00
13029;BME280;6581;42.662;23.402;2023-01-29T12:05:12;95616.97;;;1.43;100.00
13029;BME280;6581;42.662;23.402;2023-01-29T12:07:43;95621.59;;;1.73;100.00
13029;BME280;6581;42.662;23.402;2023-01-29T12:10:30;95622.59;;;1.64;100.00
13029;BME280;6581;42.662;23.402;2023-01-29T12:13:24;95627.22;;;1.53;100.00
13029;BME280;6581;42.662;23.402;2023-01-29T12:16:11;95614.88;;;1.45;100.00
13029;BME280;6581;42.662;23.402;2023-01-29T12:18:40;95616.69;;;1.45;100.00
13029;BME280;6581;42.662;23.402;2023-01-29T12:21:13;95621.72;;;1.41;100.00
13029;BME280;6581;42.662;23.402;2023-01-29T12:23:51;95623.75;;;1.44;100.00
13029;BME280;6581;42.662;23.402;2023-01-29T12:26:25;95618.63;;;1.53;100.00
13029;BME280;6581;42.662;23.402;2023-01-29T12:29:06;95626.94;;;1.55;100.00
13029;BME280;6581;42.662;23.402;2023-01-29T12:31:44;95625.41;;;1.54;100.00
13029;BME280;6581;42.662;23.402;2023-01-29T12:34:18;95622.00;;;1.53;100.00
13029;BME280;6581;42.662;23.402;2023-01-29T12:36:50;95628.97;;;1.44;100.00
13029;BME280;6581;42.662;23.402;2023-01-29T12:39:21;95632.81;;;1.47;100.00
13029;BME280;6581;42.662;23.402;2023-01-29T12:42:15;95624.63;;;1.53;100.00
13029;BME280;6581;42.662;23.402;2023-01-29T12:44:45;95624.16;;;1.51;100.00
13029;BME280;6581;42.662;23.402;2023-01-29T12:47:18;95613.47;;;1.61;100.00
13029;BME280;6581;42.662;23.402;2023-01-29T12:49:51;95624.00;;;1.70;100.00
13029;BME280;6581;42.662;23.402;2023-01-29T12:52:24;95622.25;;;1.79;100.00
13029;BME280;6581;42.662;23.402;2023-01-29T12:54:58;95620.34;;;1.71;100.00
13029;BME280;6581;42.662;23.402;2023-01-29T12:57:33;95624.41;;;1.63;100.00
13029;BME280;6581;42.662;23.402;2023-01-29T13:00:05;95616.59;;;1.63;100.00
13029;BME280;6581;42.662;23.402;2023-01-29T13:02:38;95629.94;;;1.48;100.00
13029;BME280;6581;42.662;23.402;2023-01-29T13:05:16;95618.53;;;1.58;100.00
13029;BME280;6581;42.662;23.402;2023-01-29T13:07:47;95618.03;;;1.69;100.00
13029;BME280;6581;42.662;23.402;2023-01-29T13:10:19;95613.09;;;1.68;100.00
13029;BME280;6581;42.662;23.402;2023-01-29T13:12:53;95613.13;;;1.54;100.00
13029;BME280;6581;42.662;23.402;2023-01-29T13:15:25;95607.47;;;1.74;100.00
13029;BME280;6581;42.662;23.402;2023-01-29T13:17:57;95609.19;;;1.79;100.00
13029;BME280;6581;42.662;23.402;2023-01-29T13:20:29;95611.06;;;1.78;100.00
13029;BME280;6581;42.662;23.402;2023-01-29T13:23:02;95619.09;;;1.68;100.00
13029;BME280;6581;42.662;23.402;2023-01-29T13:25:57;95623.94;;;1.61;100.00
13029;BME280;6581;42.662;23.402;2023-01-29T13:28:25;95622.59;;;1.64;100.00